sensor_id;sensor_type;location;lat;lon;timestamp;P1;durP1;ratioP1;P2;durP2;ratioP2
11616;SDS011;5864;52.998;9.068;2023-07-13T00:02:23;3.40;;;2.80;;
11616;SDS011;5864;52.998;9.068;2023-07-13T00:05:11;4.20;;;2.93;;
11616;SDS011;5864;52.998;9.068;2023-07-13T00:07:56;3.40;;;2.80;;
11616;SDS011;5864;52.998;9.068;2023-07-13T00:10:43;3.80;;;2.57;;
11616;SDS011;5864;52.998;9.068;2023-07-13T00:13:31;3.03;;;2.47;;
11616;SDS011;5864;52.998;9.068;2023-07-13T00:16:17;2.83;;;2.50;;
11616;SDS011;5864;52.998;9.068;2023-07-13T00:19:02;9.67;;;3.20;;
11616;SDS011;5864;52.998;9.068;2023-07-13T00:21:49;3.73;;;2.50;;
11616;SDS011;5864;52.998;9.068;2023-07-13T00:24:34;4.40;;;2.73;;
11616;SDS011;5864;52.998;9.068;2023-07-13T00:27:25;3.33;;;2.57;;
11616;SDS011;5864;52.998;9.068;2023-07-13T00:30:12;4.00;;;2.40;;
11616;SDS011;5864;52.998;9.068;2023-07-13T00:32:58;3.40;;;2.70;;
11616;SDS011;5864;52.998;9.068;2023-07-13T00:35:44;3.63;;;3.10;;
11616;SDS011;5864;52.998;9.068;2023-07-13T00:38:30;4.90;;;2.77;;
11616;SDS011;5864;52.998;9.068;2023-07-13T00:41:16;3.20;;;2.77;;
11616;SDS011;5864;52.998;9.068;2023-07-13T00:44:01;4.63;;;3.00;;
11616;SDS011;5864;52.998;9.068;2023-07-13T00:46:49;3.63;;;3.13;;
11616;SDS011;5864;52.998;9.068;2023-07-13T00:49:35;4.77;;;3.10;;
11616;SDS011;5864;52.998;9.068;2023-07-13T00:52:22;4.23;;;3.30;;
11616;SDS011;5864;52.998;9.068;2023-07-13T00:55:08;3.47;;;2.87;;
11616;SDS011;5864;52.998;9.068;2023-07-13T00:57:55;5.57;;;2.90;;
11616;SDS011;5864;52.998;9.068;2023-07-13T01:00:42;4.83;;;3.13;;
11616;SDS011;5864;52.998;9.068;2023-07-13T01:03:30;4.47;;;3.10;;
11616;SDS011;5864;52.998;9.068;2023-07-13T01:06:17;7.80;;;3.43;;
11616;SDS011;5864;52.998;9.068;2023-07-13T01:09:03;5.43;;;3.00;;
11616;SDS011;5864;52.998;9.068;2023-07-13T01:11:50;5.67;;;3.10;;
11616;SDS011;5864;52.998;9.068;2023-07-13T01:14:35;4.30;;;3.10;;
11616;SDS011;5864;52.998;9.068;2023-07-13T01:17:22;8.23;;;4.20;;
11616;SDS011;5864;52.998;9.068;2023-07-13T01:20:09;4.13;;;2.97;;
11616;SDS011;5864;52.998;9.068;2023-07-13T01:22:56;9.30;;;4.30;;
11616;SDS011;5864;52.998;9.068;2023-07-13T01:25:43;8.80;;;4.07;;
11616;SDS011;5864;52.998;9.068;2023-07-13T01:28:29;7.30;;;3.93;;
11616;SDS011;5864;52.998;9.068;2023-07-13T01:31:14;13.00;;;4.10;;
11616;SDS011;5864;52.998;9.068;2023-07-13T01:34:00;6.73;;;3.47;;
11616;SDS011;5864;52.998;9.068;2023-07-13T01:36:45;5.60;;;3.60;;
11616;SDS011;5864;52.998;9.068;2023-07-13T01:39:32;9.10;;;4.10;;
11616;SDS011;5864;52.998;9.068;2023-07-13T01:42:18;8.77;;;4.77;;
11616;SDS011;5864;52.998;9.068;2023-07-13T01:45:03;10.13;;;4.40;;
11616;SDS011;5864;52.998;9.068;2023-07-13T01:47:50;7.57;;;4.40;;
11616;SDS011;5864;52.998;9.068;2023-07-13T01:50:35;7.70;;;4.17;;
11616;SDS011;5864;52.998;9.068;2023-07-13T01:53:21;5.00;;;4.00;;
11616;SDS011;5864;52.998;9.068;2023-07-13T01:56:08;6.17;;;4.53;;
11616;SDS011;5864;52.998;9.068;2023-07-13T01:58:54;9.17;;;4.70;;
11616;SDS011;5864;52.998;9.068;2023-07-13T02:01:40;11.57;;;4.57;;
11616;SDS011;5864;52.998;9.068;2023-07-13T02:04:25;12.00;;;5.53;;
11616;SDS011;5864;52.998;9.068;2023-07-13T02:07:11;11.40;;;5.37;;
11616;SDS011;5864;52.998;9.068;2023-07-13T02:09:57;7.37;;;4.03;;
11616;SDS011;5864;52.998;9.068;2023-07-13T02:12:44;8.40;;;3.77;;
11616;SDS011;5864;52.998;9.068;2023-07-13T02:15:29;7.80;;;4.20;;
11616;SDS011;5864;52.998;9.068;2023-07-13T02:18:15;10.40;;;4.50;;
11616;SDS011;5864;52.998;9.068;2023-07-13T02:21:02;11.70;;;4.53;;
11616;SDS011;5864;52.998;9.068;2023-07-13T02:23:47;11.77;;;4.43;;
11616;SDS011;5864;52.998;9.068;2023-07-13T02:26:34;8.10;;;4.50;;
11616;SDS011;5864;52.998;9.068;2023-07-13T02:29:21;7.33;;;4.40;;
11616;SDS011;5864;52.998;9.068;2023-07-13T02:32:07;10.10;;;5.10;;
11616;SDS011;5864;52.998;9.068;2023-07-13T02:34:53;8.17;;;4.47;;
11616;SDS011;5864;52.998;9.068;2023-07-13T02:37:38;7.50;;;4.40;;
11616;SDS011;5864;52.998;9.068;2023-07-13T02:40:25;6.23;;;4.20;;
11616;SDS011;5864;52.998;9.068;2023-07-13T02:43:12;11.30;;;4.30;;
11616;SDS011;5864;52.998;9.068;2023-07-13T02:46:00;9.07;;;4.57;;
11616;SDS011;5864;52.998;9.068;2023-07-13T02:48:50;7.40;;;4.63;;
11616;SDS011;5864;52.998;9.068;2023-07-13T02:51:37;9.23;;;5.33;;
11616;SDS011;5864;52.998;9.068;2023-07-13T02:54:22;6.43;;;5.10;;
11616;SDS011;5864;52.998;9.068;2023-07-13T02:57:09;10.50;;;4.80;;
11616;SDS011;5864;52.998;9.068;2023-07-13T02:59:54;9.43;;;5.10;;
11616;SDS011;5864;52.998;9.068;2023-07-13T03:02:42;14.13;;;6.03;;
11616;SDS011;5864;52.998;9.068;2023-07-13T03:05:28;11.03;;;5.90;;
11616;SDS011;5864;52.998;9.068;2023-07-13T03:08:13;9.27;;;4.80;;
11616;SDS011;5864;52.998;9.068;2023-07-13T03:10:59;9.57;;;5.67;;
11616;SDS011;5864;52.998;9.068;2023-07-13T03:13:46;11.27;;;5.40;;
11616;SDS011;5864;52.998;9.068;2023-07-13T03:16:31;9.43;;;5.03;;
11616;SDS011;5864;52.998;9.068;2023-07-13T03:19:18;10.93;;;5.87;;
11616;SDS011;5864;52.998;9.068;2023-07-13T03:22:04;14.83;;;5.97;;
11616;SDS011;5864;52.998;9.068;2023-07-13T03:24:51;8.87;;;5.23;;
11616;SDS011;5864;52.998;9.068;2023-07-13T03:27:36;18.00;;;6.40;;
11616;SDS011;5864;52.998;9.068;2023-07-13T03:30:23;8.03;;;4.70;;
11616;SDS011;5864;52.998;9.068;2023-07-13T03:33:08;11.03;;;5.17;;
11616;SDS011;5864;52.998;9.068;2023-07-13T03:35:55;9.00;;;4.73;;
11616;SDS011;5864;52.998;9.068;2023-07-13T03:38:41;17.03;;;5.67;;
11616;SDS011;5864;52.998;9.068;2023-07-13T03:41:27;13.77;;;5.17;;
11616;SDS011;5864;52.998;9.068;2023-07-13T03:44:12;12.03;;;5.57;;
11616;SDS011;5864;52.998;9.068;2023-07-13T03:46:57;9.37;;;4.17;;
11616;SDS011;5864;52.998;9.068;2023-07-13T03:49:44;14.43;;;5.00;;
11616;SDS011;5864;52.998;9.068;2023-07-13T03:52:32;12.50;;;4.87;;
11616;SDS011;5864;52.998;9.068;2023-07-13T03:55:18;15.13;;;5.00;;
11616;SDS011;5864;52.998;9.068;2023-07-13T04:01:12;8.97;;;3.93;;
11616;SDS011;5864;52.998;9.068;2023-07-13T04:03:59;10.80;;;3.70;;
11616;SDS011;5864;52.998;9.068;2023-07-13T04:06:45;12.10;;;3.83;;
11616;SDS011;5864;52.998;9.068;2023-07-13T04:09:32;11.27;;;3.37;;
11616;SDS011;5864;52.998;9.068;2023-07-13T04:12:18;9.87;;;3.70;;
11616;SDS011;5864;52.998;9.068;2023-07-13T04:15:04;12.97;;;3.33;;
11616;SDS011;5864;52.998;9.068;2023-07-13T04:17:51;10.33;;;3.13;;
11616;SDS011;5864;52.998;9.068;2023-07-13T04:20:36;12.93;;;3.17;;
11616;SDS011;5864;52.998;9.068;2023-07-13T04:23:22;10.83;;;3.67;;
11616;SDS011;5864;52.998;9.068;2023-07-13T04:26:09;14.67;;;4.00;;
11616;SDS011;5864;52.998;9.068;2023-07-13T04:28:55;11.73;;;3.07;;
11616;SDS011;5864;52.998;9.068;2023-07-13T04:31:41;11.40;;;3.90;;
11616;SDS011;5864;52.998;9.068;2023-07-13T04:34:26;15.10;;;3.37;;
11616;SDS011;5864;52.998;9.068;2023-07-13T04:37:13;8.70;;;2.70;;
11616;SDS011;5864;52.998;9.068;2023-07-13T04:39:59;9.33;;;3.00;;
11616;SDS011;5864;52.998;9.068;2023-07-13T04:42:45;10.33;;;2.87;;
11616;SDS011;5864;52.998;9.068;2023-07-13T04:45:31;10.10;;;2.63;;
11616;SDS011;5864;52.998;9.068;2023-07-13T04:48:18;6.60;;;2.83;;
11616;SDS011;5864;52.998;9.068;2023-07-13T04:51:04;10.63;;;3.50;;
11616;SDS011;5864;52.998;9.068;2023-07-13T04:53:50;9.17;;;2.67;;
11616;SDS011;5864;52.998;9.068;2023-07-13T04:56:35;10.33;;;3.33;;
11616;SDS011;5864;52.998;9.068;2023-07-13T04:59:23;11.63;;;3.00;;
11616;SDS011;5864;52.998;9.068;2023-07-13T05:02:09;14.97;;;3.63;;
11616;SDS011;5864;52.998;9.068;2023-07-13T05:04:56;8.73;;;2.83;;
11616;SDS011;5864;52.998;9.068;2023-07-13T05:07:41;10.03;;;3.07;;
11616;SDS011;5864;52.998;9.068;2023-07-13T05:10:28;10.77;;;2.90;;
11616;SDS011;5864;52.998;9.068;2023-07-13T05:13:13;8.43;;;2.50;;
11616;SDS011;5864;52.998;9.068;2023-07-13T05:16:01;10.17;;;2.87;;
11616;SDS011;5864;52.998;9.068;2023-07-13T05:18:50;14.50;;;3.73;;
11616;SDS011;5864;52.998;9.068;2023-07-13T05:21:35;7.93;;;2.70;;
11616;SDS011;5864;52.998;9.068;2023-07-13T05:24:22;9.40;;;3.10;;
11616;SDS011;5864;52.998;9.068;2023-07-13T05:27:07;9.67;;;3.07;;
11616;SDS011;5864;52.998;9.068;2023-07-13T05:29:53;8.83;;;3.10;;
11616;SDS011;5864;52.998;9.068;2023-07-13T05:32:40;9.23;;;2.90;;
11616;SDS011;5864;52.998;9.068;2023-07-13T05:35:25;10.53;;;2.93;;
11616;SDS011;5864;52.998;9.068;2023-07-13T05:38:12;12.13;;;3.03;;
11616;SDS011;5864;52.998;9.068;2023-07-13T05:40:58;6.97;;;3.00;;
11616;SDS011;5864;52.998;9.068;2023-07-13T05:43:44;9.13;;;3.23;;
11616;SDS011;5864;52.998;9.068;2023-07-13T05:46:29;9.57;;;3.10;;
11616;SDS011;5864;52.998;9.068;2023-07-13T05:49:17;8.97;;;2.97;;
11616;SDS011;5864;52.998;9.068;2023-07-13T05:52:03;10.33;;;2.60;;
11616;SDS011;5864;52.998;9.068;2023-07-13T05:54:49;5.77;;;2.70;;
11616;SDS011;5864;52.998;9.068;2023-07-13T05:57:34;9.87;;;2.83;;
11616;SDS011;5864;52.998;9.068;2023-07-13T06:00:20;8.57;;;2.70;;
11616;SDS011;5864;52.998;9.068;2023-07-13T06:03:06;8.67;;;2.50;;
11616;SDS011;5864;52.998;9.068;2023-07-13T06:05:53;9.83;;;3.20;;
11616;SDS011;5864;52.998;9.068;2023-07-13T06:08:39;14.70;;;3.13;;
11616;SDS011;5864;52.998;9.068;2023-07-13T06:11:26;8.40;;;2.87;;
11616;SDS011;5864;52.998;9.068;2023-07-13T06:14:13;8.20;;;2.70;;
11616;SDS011;5864;52.998;9.068;2023-07-13T06:16:59;10.97;;;3.47;;
11616;SDS011;5864;52.998;9.068;2023-07-13T06:19:44;10.07;;;3.23;;
11616;SDS011;5864;52.998;9.068;2023-07-13T06:22:31;6.83;;;3.00;;
11616;SDS011;5864;52.998;9.068;2023-07-13T06:25:17;6.40;;;2.63;;
11616;SDS011;5864;52.998;9.068;2023-07-13T06:28:02;13.00;;;3.20;;
11616;SDS011;5864;52.998;9.068;2023-07-13T06:30:48;9.17;;;3.20;;
11616;SDS011;5864;52.998;9.068;2023-07-13T06:33:34;8.07;;;2.83;;
11616;SDS011;5864;52.998;9.068;2023-07-13T06:36:20;6.37;;;2.63;;
11616;SDS011;5864;52.998;9.068;2023-07-13T06:39:07;10.20;;;4.10;;
11616;SDS011;5864;52.998;9.068;2023-07-13T06:41:52;9.77;;;2.70;;
11616;SDS011;5864;52.998;9.068;2023-07-13T06:44:38;9.17;;;3.37;;
11616;SDS011;5864;52.998;9.068;2023-07-13T06:47:23;7.87;;;3.13;;
11616;SDS011;5864;52.998;9.068;2023-07-13T06:50:09;10.97;;;3.53;;
11616;SDS011;5864;52.998;9.068;2023-07-13T06:52:55;8.27;;;3.13;;
11616;SDS011;5864;52.998;9.068;2023-07-13T06:55:43;8.93;;;3.03;;
11616;SDS011;5864;52.998;9.068;2023-07-13T06:58:29;6.97;;;3.00;;
11616;SDS011;5864;52.998;9.068;2023-07-13T07:01:15;9.37;;;2.73;;
11616;SDS011;5864;52.998;9.068;2023-07-13T07:04:00;6.40;;;2.87;;
11616;SDS011;5864;52.998;9.068;2023-07-13T07:06:46;9.20;;;2.93;;
11616;SDS011;5864;52.998;9.068;2023-07-13T07:09:32;9.17;;;3.17;;
11616;SDS011;5864;52.998;9.068;2023-07-13T07:12:19;10.70;;;3.03;;
11616;SDS011;5864;52.998;9.068;2023-07-13T07:15:05;17.63;;;3.67;;
11616;SDS011;5864;52.998;9.068;2023-07-13T07:17:51;7.40;;;2.70;;
11616;SDS011;5864;52.998;9.068;2023-07-13T07:20:36;7.93;;;3.07;;
11616;SDS011;5864;52.998;9.068;2023-07-13T07:23:22;10.17;;;3.43;;
11616;SDS011;5864;52.998;9.068;2023-07-13T07:26:07;8.67;;;3.20;;
11616;SDS011;5864;52.998;9.068;2023-07-13T07:28:55;8.00;;;2.70;;
11616;SDS011;5864;52.998;9.068;2023-07-13T07:31:40;12.47;;;2.97;;
11616;SDS011;5864;52.998;9.068;2023-07-13T07:34:26;8.93;;;2.90;;
11616;SDS011;5864;52.998;9.068;2023-07-13T07:37:12;7.80;;;2.87;;
11616;SDS011;5864;52.998;9.068;2023-07-13T07:39:58;9.80;;;3.33;;
11616;SDS011;5864;52.998;9.068;2023-07-13T07:42:44;7.27;;;3.30;;
11616;SDS011;5864;52.998;9.068;2023-07-13T07:45:31;8.00;;;2.30;;
11616;SDS011;5864;52.998;9.068;2023-07-13T07:48:17;9.57;;;2.93;;
11616;SDS011;5864;52.998;9.068;2023-07-13T07:51:02;13.43;;;3.37;;
11616;SDS011;5864;52.998;9.068;2023-07-13T07:53:48;7.80;;;2.93;;
11616;SDS011;5864;52.998;9.068;2023-07-13T07:56:34;10.33;;;2.60;;
11616;SDS011;5864;52.998;9.068;2023-07-13T07:59:19;6.43;;;3.00;;
11616;SDS011;5864;52.998;9.068;2023-07-13T08:02:08;7.37;;;2.70;;
11616;SDS011;5864;52.998;9.068;2023-07-13T08:04:54;5.63;;;2.40;;
11616;SDS011;5864;52.998;9.068;2023-07-13T08:07:40;4.53;;;2.27;;
11616;SDS011;5864;52.998;9.068;2023-07-13T08:10:25;7.57;;;2.77;;
11616;SDS011;5864;52.998;9.068;2023-07-13T08:13:11;8.07;;;2.47;;
11616;SDS011;5864;52.998;9.068;2023-07-13T08:15:57;7.13;;;2.80;;
11616;SDS011;5864;52.998;9.068;2023-07-13T08:18:44;8.57;;;3.07;;
11616;SDS011;5864;52.998;9.068;2023-07-13T08:21:30;7.83;;;2.70;;
11616;SDS011;5864;52.998;9.068;2023-07-13T08:24:15;6.37;;;2.93;;
11616;SDS011;5864;52.998;9.068;2023-07-13T08:27:02;6.27;;;2.67;;
11616;SDS011;5864;52.998;9.068;2023-07-13T08:29:48;5.23;;;2.40;;
11616;SDS011;5864;52.998;9.068;2023-07-13T08:32:34;5.77;;;2.67;;
11616;SDS011;5864;52.998;9.068;2023-07-13T08:35:22;8.87;;;2.63;;
11616;SDS011;5864;52.998;9.068;2023-07-13T08:38:09;6.67;;;2.70;;
11616;SDS011;5864;52.998;9.068;2023-07-13T08:40:56;8.63;;;2.97;;
11616;SDS011;5864;52.998;9.068;2023-07-13T08:43:42;4.57;;;2.70;;
11616;SDS011;5864;52.998;9.068;2023-07-13T08:46:32;7.37;;;2.67;;
11616;SDS011;5864;52.998;9.068;2023-07-13T08:49:21;6.67;;;2.50;;
11616;SDS011;5864;52.998;9.068;2023-07-13T08:52:11;8.50;;;3.20;;
11616;SDS011;5864;52.998;9.068;2023-07-13T08:55:02;4.73;;;2.40;;
11616;SDS011;5864;52.998;9.068;2023-07-13T08:57:56;8.73;;;3.50;;
11616;SDS011;5864;52.998;9.068;2023-07-13T09:00:48;5.33;;;2.63;;
11616;SDS011;5864;52.998;9.068;2023-07-13T09:03:42;5.17;;;2.30;;
11616;SDS011;5864;52.998;9.068;2023-07-13T09:06:39;6.60;;;2.40;;
11616;SDS011;5864;52.998;9.068;2023-07-13T09:09:38;7.33;;;2.87;;
11616;SDS011;5864;52.998;9.068;2023-07-13T09:12:31;7.57;;;2.90;;
11616;SDS011;5864;52.998;9.068;2023-07-13T09:15:25;7.07;;;2.47;;
11616;SDS011;5864;52.998;9.068;2023-07-13T09:18:16;5.80;;;2.60;;
11616;SDS011;5864;52.998;9.068;2023-07-13T09:21:09;5.93;;;2.77;;
11616;SDS011;5864;52.998;9.068;2023-07-13T09:23:59;5.80;;;2.40;;
11616;SDS011;5864;52.998;9.068;2023-07-13T09:27:12;7.03;;;2.87;;
11616;SDS011;5864;52.998;9.068;2023-07-13T09:30:04;7.63;;;2.60;;
11616;SDS011;5864;52.998;9.068;2023-07-13T09:33:06;7.67;;;3.00;;
11616;SDS011;5864;52.998;9.068;2023-07-13T09:35:52;7.57;;;2.93;;
11616;SDS011;5864;52.998;9.068;2023-07-13T09:38:37;7.20;;;2.60;;
11616;SDS011;5864;52.998;9.068;2023-07-13T09:41:23;5.33;;;2.30;;
11616;SDS011;5864;52.998;9.068;2023-07-13T09:44:18;6.27;;;2.60;;
11616;SDS011;5864;52.998;9.068;2023-07-13T09:47:15;4.33;;;3.00;;
11616;SDS011;5864;52.998;9.068;2023-07-13T09:50:03;6.23;;;2.77;;
11616;SDS011;5864;52.998;9.068;2023-07-13T09:52:51;4.50;;;2.03;;
11616;SDS011;5864;52.998;9.068;2023-07-13T09:55:39;6.10;;;2.67;;
11616;SDS011;5864;52.998;9.068;2023-07-13T09:58:26;6.17;;;2.57;;
11616;SDS011;5864;52.998;9.068;2023-07-13T10:01:17;4.87;;;2.30;;
11616;SDS011;5864;52.998;9.068;2023-07-13T10:04:17;5.73;;;2.53;;
11616;SDS011;5864;52.998;9.068;2023-07-13T10:07:07;5.47;;;2.30;;
11616;SDS011;5864;52.998;9.068;2023-07-13T10:09:57;5.77;;;2.30;;
11616;SDS011;5864;52.998;9.068;2023-07-13T10:12:46;3.70;;;2.00;;
11616;SDS011;5864;52.998;9.068;2023-07-13T10:15:32;3.53;;;2.10;;
11616;SDS011;5864;52.998;9.068;2023-07-13T10:18:19;4.33;;;2.10;;
11616;SDS011;5864;52.998;9.068;2023-07-13T10:21:11;4.90;;;1.93;;
11616;SDS011;5864;52.998;9.068;2023-07-13T10:24:02;3.10;;;1.80;;
11616;SDS011;5864;52.998;9.068;2023-07-13T10:26:56;5.93;;;2.40;;
11616;SDS011;5864;52.998;9.068;2023-07-13T10:29:48;4.30;;;2.50;;
11616;SDS011;5864;52.998;9.068;2023-07-13T10:32:40;27.83;;;2.97;;
11616;SDS011;5864;52.998;9.068;2023-07-13T10:35:27;51.07;;;4.93;;
11616;SDS011;5864;52.998;9.068;2023-07-13T10:38:15;4.17;;;2.37;;
11616;SDS011;5864;52.998;9.068;2023-07-13T10:41:06;5.67;;;1.93;;
11616;SDS011;5864;52.998;9.068;2023-07-13T10:43:56;3.93;;;2.20;;
11616;SDS011;5864;52.998;9.068;2023-07-13T10:46:43;5.20;;;2.23;;
11616;SDS011;5864;52.998;9.068;2023-07-13T10:49:30;5.60;;;1.90;;
11616;SDS011;5864;52.998;9.068;2023-07-13T10:52:41;5.57;;;2.00;;
11616;SDS011;5864;52.998;9.068;2023-07-13T10:55:30;19.80;;;2.93;;
11616;SDS011;5864;52.998;9.068;2023-07-13T10:58:18;3.40;;;2.23;;
11616;SDS011;5864;52.998;9.068;2023-07-13T11:01:09;3.23;;;2.23;;
11616;SDS011;5864;52.998;9.068;2023-07-13T11:03:59;6.57;;;2.37;;
11616;SDS011;5864;52.998;9.068;2023-07-13T11:06:48;6.63;;;2.23;;
11616;SDS011;5864;52.998;9.068;2023-07-13T11:09:37;7.23;;;2.80;;
11616;SDS011;5864;52.998;9.068;2023-07-13T11:15:42;3.47;;;1.90;;
11616;SDS011;5864;52.998;9.068;2023-07-13T11:18:29;4.73;;;2.00;;
11616;SDS011;5864;52.998;9.068;2023-07-13T11:21:15;3.67;;;1.87;;
11616;SDS011;5864;52.998;9.068;2023-07-13T11:24:03;2.70;;;2.00;;
11616;SDS011;5864;52.998;9.068;2023-07-13T11:26:59;6.60;;;2.30;;
11616;SDS011;5864;52.998;9.068;2023-07-13T11:30:07;6.17;;;2.90;;
11616;SDS011;5864;52.998;9.068;2023-07-13T11:33:03;11.40;;;2.97;;
11616;SDS011;5864;52.998;9.068;2023-07-13T11:36:02;7.77;;;2.73;;
11616;SDS011;5864;52.998;9.068;2023-07-13T11:38:51;3.87;;;2.20;;
11616;SDS011;5864;52.998;9.068;2023-07-13T11:41:45;4.90;;;2.77;;
11616;SDS011;5864;52.998;9.068;2023-07-13T11:44:41;6.47;;;2.40;;
11616;SDS011;5864;52.998;9.068;2023-07-13T11:47:28;2.73;;;1.93;;
11616;SDS011;5864;52.998;9.068;2023-07-13T11:50:19;4.37;;;2.20;;
11616;SDS011;5864;52.998;9.068;2023-07-13T11:53:08;5.23;;;1.90;;
11616;SDS011;5864;52.998;9.068;2023-07-13T11:55:55;2.33;;;2.00;;
11616;SDS011;5864;52.998;9.068;2023-07-13T11:58:42;3.70;;;2.60;;
11616;SDS011;5864;52.998;9.068;2023-07-13T12:01:30;3.53;;;2.30;;
11616;SDS011;5864;52.998;9.068;2023-07-13T12:04:19;3.40;;;2.40;;
11616;SDS011;5864;52.998;9.068;2023-07-13T12:07:14;3.73;;;2.00;;
11616;SDS011;5864;52.998;9.068;2023-07-13T12:10:01;3.53;;;2.30;;
11616;SDS011;5864;52.998;9.068;2023-07-13T12:12:48;2.87;;;1.90;;
11616;SDS011;5864;52.998;9.068;2023-07-13T12:15:38;2.27;;;1.60;;
11616;SDS011;5864;52.998;9.068;2023-07-13T12:18:30;2.80;;;1.90;;
11616;SDS011;5864;52.998;9.068;2023-07-13T12:21:17;2.67;;;1.83;;
11616;SDS011;5864;52.998;9.068;2023-07-13T12:24:04;2.97;;;1.90;;
11616;SDS011;5864;52.998;9.068;2023-07-13T12:26:59;3.53;;;1.60;;
11616;SDS011;5864;52.998;9.068;2023-07-13T12:29:50;1.63;;;1.50;;
11616;SDS011;5864;52.998;9.068;2023-07-13T12:32:38;1.30;;;1.20;;
11616;SDS011;5864;52.998;9.068;2023-07-13T12:35:26;2.53;;;1.67;;
11616;SDS011;5864;52.998;9.068;2023-07-13T12:38:16;2.00;;;1.80;;
11616;SDS011;5864;52.998;9.068;2023-07-13T12:41:04;1.87;;;1.40;;
11616;SDS011;5864;52.998;9.068;2023-07-13T12:43:53;1.87;;;1.67;;
11616;SDS011;5864;52.998;9.068;2023-07-13T12:46:39;1.97;;;1.60;;
11616;SDS011;5864;52.998;9.068;2023-07-13T12:49:29;1.50;;;1.33;;
11616;SDS011;5864;52.998;9.068;2023-07-13T12:52:21;1.87;;;1.57;;
11616;SDS011;5864;52.998;9.068;2023-07-13T12:55:11;1.60;;;1.43;;
11616;SDS011;5864;52.998;9.068;2023-07-13T12:57:59;1.70;;;1.50;;
11616;SDS011;5864;52.998;9.068;2023-07-13T13:00:49;1.53;;;1.43;;
11616;SDS011;5864;52.998;9.068;2023-07-13T13:03:38;1.40;;;1.30;;
11616;SDS011;5864;52.998;9.068;2023-07-13T13:06:26;1.70;;;1.60;;
11616;SDS011;5864;52.998;9.068;2023-07-13T13:09:16;1.83;;;1.43;;
11616;SDS011;5864;52.998;9.068;2023-07-13T13:12:03;1.77;;;1.67;;
11616;SDS011;5864;52.998;9.068;2023-07-13T13:14:50;3.40;;;1.63;;
11616;SDS011;5864;52.998;9.068;2023-07-13T13:17:36;2.33;;;1.17;;
11616;SDS011;5864;52.998;9.068;2023-07-13T13:20:23;1.33;;;1.20;;
11616;SDS011;5864;52.998;9.068;2023-07-13T13:23:11;2.50;;;1.60;;
11616;SDS011;5864;52.998;9.068;2023-07-13T13:26:02;1.67;;;1.40;;
11616;SDS011;5864;52.998;9.068;2023-07-13T13:28:50;1.83;;;1.20;;
11616;SDS011;5864;52.998;9.068;2023-07-13T13:31:36;1.93;;;1.50;;
11616;SDS011;5864;52.998;9.068;2023-07-13T13:34:22;1.40;;;1.30;;
11616;SDS011;5864;52.998;9.068;2023-07-13T13:37:12;1.30;;;1.10;;
11616;SDS011;5864;52.998;9.068;2023-07-13T13:40:04;1.17;;;0.97;;
11616;SDS011;5864;52.998;9.068;2023-07-13T13:42:59;1.47;;;1.30;;
11616;SDS011;5864;52.998;9.068;2023-07-13T13:45:45;1.70;;;1.33;;
11616;SDS011;5864;52.998;9.068;2023-07-13T13:48:32;1.97;;;1.30;;
11616;SDS011;5864;52.998;9.068;2023-07-13T13:51:20;1.20;;;1.07;;
11616;SDS011;5864;52.998;9.068;2023-07-13T13:54:09;1.53;;;1.20;;
11616;SDS011;5864;52.998;9.068;2023-07-13T13:56:56;1.47;;;1.20;;
11616;SDS011;5864;52.998;9.068;2023-07-13T13:59:43;1.30;;;1.20;;
11616;SDS011;5864;52.998;9.068;2023-07-13T14:02:29;1.43;;;1.20;;
11616;SDS011;5864;52.998;9.068;2023-07-13T14:05:18;1.30;;;1.20;;
11616;SDS011;5864;52.998;9.068;2023-07-13T14:08:08;2.80;;;1.37;;
11616;SDS011;5864;52.998;9.068;2023-07-13T14:10:58;1.83;;;1.30;;
11616;SDS011;5864;52.998;9.068;2023-07-13T14:13:44;1.57;;;1.47;;
11616;SDS011;5864;52.998;9.068;2023-07-13T14:16:33;1.63;;;1.30;;
11616;SDS011;5864;52.998;9.068;2023-07-13T14:19:19;2.93;;;1.67;;
11616;SDS011;5864;52.998;9.068;2023-07-13T14:22:06;2.30;;;1.73;;
11616;SDS011;5864;52.998;9.068;2023-07-13T14:24:52;3.37;;;2.10;;
11616;SDS011;5864;52.998;9.068;2023-07-13T14:27:38;3.90;;;2.70;;
11616;SDS011;5864;52.998;9.068;2023-07-13T14:30:24;3.97;;;2.37;;
11616;SDS011;5864;52.998;9.068;2023-07-13T14:33:12;3.57;;;2.40;;
11616;SDS011;5864;52.998;9.068;2023-07-13T14:35:57;4.60;;;3.17;;
11616;SDS011;5864;52.998;9.068;2023-07-13T14:38:43;5.57;;;3.10;;
11616;SDS011;5864;52.998;9.068;2023-07-13T14:41:29;3.53;;;2.77;;
11616;SDS011;5864;52.998;9.068;2023-07-13T14:44:15;4.70;;;2.93;;
11616;SDS011;5864;52.998;9.068;2023-07-13T14:47:03;4.03;;;2.70;;
11616;SDS011;5864;52.998;9.068;2023-07-13T14:49:52;3.77;;;2.73;;
11616;SDS011;5864;52.998;9.068;2023-07-13T14:52:38;4.70;;;2.80;;
11616;SDS011;5864;52.998;9.068;2023-07-13T14:55:24;4.07;;;2.77;;
11616;SDS011;5864;52.998;9.068;2023-07-13T14:58:10;6.20;;;3.00;;
11616;SDS011;5864;52.998;9.068;2023-07-13T15:00:57;5.70;;;2.87;;
11616;SDS011;5864;52.998;9.068;2023-07-13T15:03:44;6.03;;;2.63;;
11616;SDS011;5864;52.998;9.068;2023-07-13T15:06:35;4.07;;;2.73;;
11616;SDS011;5864;52.998;9.068;2023-07-13T15:09:41;3.77;;;2.47;;
11616;SDS011;5864;52.998;9.068;2023-07-13T15:12:27;3.57;;;2.30;;
11616;SDS011;5864;52.998;9.068;2023-07-13T15:15:13;4.27;;;2.33;;
11616;SDS011;5864;52.998;9.068;2023-07-13T15:17:59;5.20;;;2.50;;
11616;SDS011;5864;52.998;9.068;2023-07-13T15:20:45;3.20;;;2.10;;
11616;SDS011;5864;52.998;9.068;2023-07-13T15:23:33;3.60;;;1.93;;
11616;SDS011;5864;52.998;9.068;2023-07-13T15:26:19;4.40;;;2.20;;
11616;SDS011;5864;52.998;9.068;2023-07-13T15:29:04;2.93;;;1.67;;
11616;SDS011;5864;52.998;9.068;2023-07-13T15:31:50;4.50;;;1.87;;
11616;SDS011;5864;52.998;9.068;2023-07-13T15:34:36;3.00;;;1.90;;
11616;SDS011;5864;52.998;9.068;2023-07-13T15:37:21;2.43;;;1.60;;
11616;SDS011;5864;52.998;9.068;2023-07-13T15:40:09;4.20;;;1.60;;
11616;SDS011;5864;52.998;9.068;2023-07-13T15:42:56;3.23;;;1.90;;
11616;SDS011;5864;52.998;9.068;2023-07-13T15:45:42;5.00;;;2.10;;
11616;SDS011;5864;52.998;9.068;2023-07-13T15:48:29;1.77;;;1.40;;
11616;SDS011;5864;52.998;9.068;2023-07-13T15:51:18;1.80;;;1.27;;
11616;SDS011;5864;52.998;9.068;2023-07-13T15:54:08;1.30;;;1.20;;
11616;SDS011;5864;52.998;9.068;2023-07-13T15:57:00;2.23;;;1.40;;
11616;SDS011;5864;52.998;9.068;2023-07-13T15:59:46;1.13;;;1.03;;
11616;SDS011;5864;52.998;9.068;2023-07-13T16:02:32;1.10;;;1.00;;
11616;SDS011;5864;52.998;9.068;2023-07-13T16:05:17;1.23;;;1.13;;
11616;SDS011;5864;52.998;9.068;2023-07-13T16:08:05;2.50;;;1.30;;
11616;SDS011;5864;52.998;9.068;2023-07-13T16:11:01;5.23;;;1.53;;
11616;SDS011;5864;52.998;9.068;2023-07-13T16:13:48;3.77;;;1.63;;
11616;SDS011;5864;52.998;9.068;2023-07-13T16:16:37;1.23;;;1.03;;
11616;SDS011;5864;52.998;9.068;2023-07-13T16:19:22;2.33;;;1.20;;
11616;SDS011;5864;52.998;9.068;2023-07-13T16:22:14;1.10;;;1.00;;
11616;SDS011;5864;52.998;9.068;2023-07-13T16:25:02;2.33;;;1.30;;
11616;SDS011;5864;52.998;9.068;2023-07-13T16:27:51;1.90;;;1.20;;
11616;SDS011;5864;52.998;9.068;2023-07-13T16:30:45;3.33;;;1.20;;
11616;SDS011;5864;52.998;9.068;2023-07-13T16:33:32;2.33;;;1.30;;
11616;SDS011;5864;52.998;9.068;2023-07-13T16:36:17;1.53;;;1.27;;
11616;SDS011;5864;52.998;9.068;2023-07-13T16:39:10;2.10;;;1.53;;
11616;SDS011;5864;52.998;9.068;2023-07-13T16:41:57;3.43;;;1.30;;
11616;SDS011;5864;52.998;9.068;2023-07-13T16:44:44;2.07;;;1.60;;
11616;SDS011;5864;52.998;9.068;2023-07-13T16:47:31;4.33;;;1.53;;
11616;SDS011;5864;52.998;9.068;2023-07-13T16:50:17;2.67;;;1.30;;
11616;SDS011;5864;52.998;9.068;2023-07-13T16:53:07;2.50;;;1.63;;
11616;SDS011;5864;52.998;9.068;2023-07-13T16:56:00;4.80;;;2.03;;
11616;SDS011;5864;52.998;9.068;2023-07-13T16:58:48;2.20;;;1.40;;
11616;SDS011;5864;52.998;9.068;2023-07-13T17:01:34;3.13;;;1.80;;
11616;SDS011;5864;52.998;9.068;2023-07-13T17:04:21;3.60;;;1.67;;
11616;SDS011;5864;52.998;9.068;2023-07-13T17:07:07;2.27;;;1.80;;
11616;SDS011;5864;52.998;9.068;2023-07-13T17:09:54;2.03;;;1.63;;